»·PEaware :: N52326 KTOA-KVNY

N52326 :: KTOA-KVNY

FLIGHT INFORMATION

Flight Status: Arrived
Operator: Privately registered:
United States
More flights under this callsign
Pilot: Steven M. (10820)
Aircraft: PIPER PA-28 CHEROKEE ARCHER
(PA28)
More flights by this aircraft type
Origin: KTOA Zamperini
United States
Destination: KVNY Van Nuys
United States
More flights between these airports :: More routes between these airports
Route: +LAX170 LIMBO V64 SMO125 SMO SMO317R CANOG
File this flight plan on PilotEdge
Remarks: tec sctp2
Altitude:
(Current/Filed)
4,000ft
Speed:
(Current/Filed)
100kts
Departed: 01-Aug-20 04:31 PM
Arrived: 01-Aug-20 05:11 PM
Distance/Time
Traveled:
25nm/0:40
Distance/Time
To Go:
Arrived

Flight Plot

Page will automatically refresh every two minutes.

Flight plan parsing failed; only flown route is shown


Map Options




Map Legend


Flown Route
Filed Route
Departure Airport
Arrival Airport
Navaid (VOR, NDB)
Fix

Horizontal Profiles

Position Reports

Time Latitude Longitude Heading Altitude Ground
Speed
01-Aug-20 15:58 33.803347 -118.344052 39 103ft 0kts
01-Aug-20 15:59 33.803347 -118.344052 39 103ft 0kts
01-Aug-20 16:00 33.803347 -118.344052 39 103ft 0kts
01-Aug-20 16:03 33.803347 -118.344052 39 103ft 0kts
01-Aug-20 16:04 33.803347 -118.344052 39 103ft 0kts
01-Aug-20 16:05 33.803347 -118.344052 39 103ft 0kts
01-Aug-20 16:06 33.803347 -118.344052 39 103ft 0kts
01-Aug-20 16:07 33.803347 -118.344052 39 103ft 0kts
01-Aug-20 16:08 33.803347 -118.344052 39 103ft 0kts
01-Aug-20 16:09 33.803347 -118.344052 39 103ft 0kts
01-Aug-20 16:10 33.803347 -118.344052 39 103ft 0kts
01-Aug-20 16:11 33.803347 -118.344052 39 103ft 0kts
01-Aug-20 16:12 33.803347 -118.344052 39 103ft 0kts
01-Aug-20 16:13 33.803347 -118.344052 39 103ft 0kts
01-Aug-20 16:14 33.803347 -118.344052 39 103ft 0kts
01-Aug-20 16:15 33.803347 -118.344052 39 103ft 0kts
01-Aug-20 16:16 33.803347 -118.344052 39 103ft 0kts
01-Aug-20 16:17 33.803377 -118.344022 39 103ft 0kts
01-Aug-20 16:18 33.803377 -118.344022 39 103ft 0kts
01-Aug-20 16:19 33.803377 -118.344022 39 103ft 0kts
01-Aug-20 16:20 33.803377 -118.344022 39 103ft 0kts
01-Aug-20 16:21 33.803377 -118.344022 39 103ft 0kts
01-Aug-20 16:22 33.803377 -118.344022 39 103ft 0kts
01-Aug-20 16:23 33.803377 -118.344022 39 103ft 0kts
01-Aug-20 16:24 33.803377 -118.344022 39 103ft 0kts
01-Aug-20 16:25 33.803387 -118.344012 39 103ft 1kts
01-Aug-20 16:26 33.802740 -118.341587 129 102ft 9kts
01-Aug-20 16:27 33.801574 -118.339836 130 103ft 6kts
01-Aug-20 16:28 33.799611 -118.336901 128 105ft 16kts
01-Aug-20 16:29 33.799064 -118.333326 38 102ft 0kts
01-Aug-20 16:30 33.805836 -118.342020 311 167ft 96kts
01-Aug-20 16:31 33.823620 -118.371673 305 622ft 113kts
01-Aug-20 16:32 33.841715 -118.402593 305 1121ft 113kts
01-Aug-20 16:33 33.859827 -118.433559 309 1618ft 112kts
01-Aug-20 16:34 33.888914 -118.430544 359 2129ft 110kts
01-Aug-20 16:35 33.919354 -118.431165 358 2629ft 109kts
01-Aug-20 16:36 33.943560 -118.448513 324 3127ft 107kts
01-Aug-20 16:37 33.971481 -118.458403 352 3627ft 105kts
01-Aug-20 16:38 34.001053 -118.460550 358 4009ft 114kts
01-Aug-20 16:39 34.027499 -118.479221 313 4004ft 107kts
01-Aug-20 16:40 34.046956 -118.504312 313 4008ft 99kts
01-Aug-20 16:41 34.065792 -118.528600 313 4008ft 98kts
01-Aug-20 16:42 34.084406 -118.552598 313 4009ft 97kts
01-Aug-20 16:43 34.106912 -118.570305 352 4027ft 113kts
01-Aug-20 16:44 34.137044 -118.575348 352 4526ft 107kts
01-Aug-20 16:45 34.166373 -118.580223 352 4992ft 108kts
01-Aug-20 16:47 34.196827 -118.585288 352 5008ft 108kts
01-Aug-20 16:48 34.226400 -118.590217 352 5009ft 107kts
01-Aug-20 16:49 34.255906 -118.595133 352 5009ft 107kts
01-Aug-20 16:50 34.284991 -118.599977 352 5014ft 107kts
01-Aug-20 16:51 34.314241 -118.604850 352 5009ft 105kts
01-Aug-20 16:52 34.341973 -118.609474 352 5004ft 94kts
01-Aug-20 16:53 34.369358 -118.614036 352 5005ft 98kts
01-Aug-20 16:54 34.398634 -118.618905 352 5009ft 110kts
01-Aug-20 16:55 34.426103 -118.623492 352 5014ft 98kts
01-Aug-20 16:56 34.456578 -118.627566 16 5009ft 117kts
01-Aug-20 16:57 34.467568 -118.591976 81 5009ft 120kts
01-Aug-20 16:58 34.472671 -118.551954 81 5009ft 120kts
01-Aug-20 16:59 34.477798 -118.511853 81 5008ft 119kts
01-Aug-20 17:00 34.473828 -118.475983 161 5008ft 117kts
01-Aug-20 17:00 34.450445 -118.486815 210 4585ft 107kts
01-Aug-20 17:02 34.420752 -118.507593 208 4004ft 104kts
01-Aug-20 17:03 34.396214 -118.510822 166 3956ft 84kts
01-Aug-20 17:04 34.373243 -118.505096 175 4134ft 101kts
01-Aug-20 17:04 34.349189 -118.502693 176 4122ft 105kts
01-Aug-20 17:06 34.317410 -118.500733 175 3556ft 88kts
01-Aug-20 17:07 34.291726 -118.497327 174 2841ft 95kts
01-Aug-20 17:07 34.270123 -118.497127 177 1999ft 72kts
01-Aug-20 17:08 34.245427 -118.493799 173 1487ft 95kts
01-Aug-20 17:09 34.220224 -118.491747 170 966ft 87kts
01-Aug-20 17:10 34.206549 -118.490814 275 807ft 11kts
01-Aug-20 17:11 34.206647 -118.491720 278 807ft 11kts
01-Aug-20 17:12 34.206462 -118.492700 92 807ft 0kts
01-Aug-20 17:13 34.206462 -118.492700 92 807ft 0kts
01-Aug-20 17:14 34.206462 -118.492700 92 807ft 0kts
01-Aug-20 17:15 34.206462 -118.492700 92 807ft 0kts
01-Aug-20 17:16 34.206462 -118.492700 92 807ft 0kts

Navigation Log

Ident Type
Flight plan parsing failed, navigation log unavailable